Time;durP1;ratioP1;P1;durP2;ratioP2;P2;SDS_P1;SDS_P2;PMS_P1;PMS_P2;Temp;Humidity;BMP_temperature;BMP_pressure;BME280_temperature;BME280_humidity;BME280_pressure;Samples;Min_cycle;Max_cycle;Signal;HPM_P1;HPM_P2
2023/04/24 00:01:29;;;;;;;1.60;0.30;;;11.50;78.00;;;;;;4988137;28;20553;-71
2023/04/24 00:03:59;;;;;;;1.88;0.50;;;11.50;78.20;;;;;;4989509;28;20326;-71
2023/04/24 00:06:32;;;;;;;1.90;0.50;;;11.50;78.30;;;;;;4988979;28;20126;-71
2023/04/24 00:09:00;;;;;;;1.90;0.43;;;11.50;78.30;;;;;;5004679;28;20175;-71
2023/04/24 00:11:27;;;;;;;1.67;0.40;;;11.40;78.40;;;;;;4989046;28;20062;-71
2023/04/24 00:13:54;;;;;;;1.73;0.40;;;11.40;78.50;;;;;;4989067;28;20097;-71
2023/04/24 00:16:21;;;;;;;2.92;0.60;;;11.30;78.70;;;;;;4988062;28;20279;-71
2023/04/24 00:18:48;;;;;;;1.98;0.52;;;11.30;79.20;;;;;;4990383;28;20535;-71
2023/04/24 00:21:17;;;;;;;2.42;0.60;;;11.30;78.90;;;;;;4989915;28;20054;-71
2023/04/24 00:23:44;;;;;;;2.10;0.70;;;11.30;79.30;;;;;;4988690;28;20059;-71
2023/04/24 00:26:11;;;;;;;3.47;0.63;;;11.30;79.30;;;;;;4988798;28;20054;-71
2023/04/24 00:28:38;;;;;;;1.83;0.50;;;11.30;79.40;;;;;;4988684;28;20286;-71
2023/04/24 00:31:05;;;;;;;2.67;0.60;;;11.20;79.50;;;;;;4988078;28;20051;-71
2023/04/24 00:33:32;;;;;;;2.20;0.75;;;11.20;79.60;;;;;;4987856;28;20133;-71
2023/04/24 00:35:59;;;;;;;2.17;0.70;;;11.20;79.70;;;;;;4988850;28;20073;-72
2023/04/24 00:38:28;;;;;;;2.20;0.80;;;11.20;79.80;;;;;;4990389;28;20466;-71
2023/04/24 00:40:54;;;;;;;2.85;0.93;;;11.20;80.00;;;;;;4986937;28;20631;-71
2023/04/24 00:43:21;;;;;;;2.45;0.90;;;11.20;79.90;;;;;;4988594;28;20497;-71
2023/04/24 00:45:48;;;;;;;2.40;0.88;;;11.20;80.20;;;;;;4988333;28;20047;-70
2023/04/24 00:48:15;;;;;;;2.60;0.98;;;11.20;80.30;;;;;;4988785;28;20156;-71
2023/04/24 00:50:43;;;;;;;2.90;1.10;;;11.20;80.40;;;;;;4999296;28;20079;-71
2023/04/24 00:53:10;;;;;;;2.50;1.10;;;11.20;80.40;;;;;;5001574;28;20258;-71
2023/04/24 00:55:38;;;;;;;3.25;1.13;;;11.20;80.70;;;;;;4980994;28;20526;-71
2023/04/24 00:58:05;;;;;;;3.15;1.30;;;11.20;80.70;;;;;;5004575;28;20065;-70
2023/04/24 01:00:32;;;;;;;4.05;1.40;;;11.20;80.90;;;;;;4986771;28;20074;-71
2023/04/24 01:03:02;;;;;;;3.13;1.30;;;11.20;81.00;;;;;;4988408;28;20505;-71
2023/04/24 01:05:29;;;;;;;3.20;1.55;;;11.10;80.90;;;;;;4987990;28;20385;-71
2023/04/24 01:07:57;;;;;;;3.20;1.42;;;11.10;81.50;;;;;;4986032;28;20051;-71
2023/04/24 01:10:26;;;;;;;3.08;1.45;;;11.10;81.30;;;;;;4987483;28;20058;-71
2023/04/24 01:12:55;;;;;;;4.28;1.90;;;11.10;81.30;;;;;;5004434;28;20053;-71
2023/04/24 01:15:22;;;;;;;3.90;2.23;;;11.10;81.60;;;;;;5001674;28;20130;-71
2023/04/24 01:17:48;;;;;;;4.13;2.33;;;11.10;81.80;;;;;;4984980;28;20290;-71
2023/04/24 01:20:16;;;;;;;4.32;2.35;;;11.10;82.10;;;;;;4989165;28;20059;-71
2023/04/24 01:22:44;;;;;;;4.10;2.50;;;11.10;82.10;;;;;;4985248;28;20058;-71
2023/04/24 01:25:11;;;;;;;4.57;2.80;;;11.10;82.60;;;;;;4987785;28;20050;-71
2023/04/24 01:27:38;;;;;;;4.80;2.80;;;11.10;82.60;;;;;;4971639;28;20137;-71
2023/04/24 01:30:07;;;;;;;4.85;2.70;;;11.10;82.80;;;;;;4988591;28;20271;-71
2023/04/24 01:32:34;;;;;;;4.82;2.83;;;11.10;83.00;;;;;;4996477;28;20130;-71
2023/04/24 01:35:01;;;;;;;4.50;2.70;;;11.10;82.70;;;;;;4987629;28;20134;-71
2023/04/24 01:37:28;;;;;;;4.47;2.45;;;11.10;83.20;;;;;;4987890;28;20055;-71
2023/04/24 01:39:57;;;;;;;5.13;2.57;;;11.10;83.20;;;;;;4985053;28;20074;-70
2023/04/24 01:42:26;;;;;;;5.80;2.40;;;11.10;83.40;;;;;;5004147;28;20259;-71
2023/04/24 01:44:54;;;;;;;4.65;2.40;;;11.10;83.40;;;;;;4987827;28;20053;-71
2023/04/24 01:47:21;;;;;;;4.93;2.50;;;11.10;83.40;;;;;;5003743;28;20058;-71
2023/04/24 01:49:50;;;;;;;4.18;2.80;;;11.00;83.50;;;;;;4986439;28;20051;-71
2023/04/24 01:52:18;;;;;;;4.83;3.20;;;11.00;83.70;;;;;;4971458;28;20528;-71
2023/04/24 01:54:45;;;;;;;5.65;3.40;;;11.00;83.60;;;;;;5003535;28;20262;-71
2023/04/24 01:57:14;;;;;;;4.10;3.30;;;11.00;83.70;;;;;;4985731;28;20053;-71
2023/04/24 01:59:42;;;;;;;4.75;3.65;;;11.00;83.50;;;;;;4986624;28;20172;-71
2023/04/24 02:02:09;;;;;;;4.90;3.60;;;11.00;83.20;;;;;;4987067;28;20053;-71
2023/04/24 02:04:37;;;;;;;4.73;3.53;;;10.90;83.20;;;;;;4987281;28;20122;-71
2023/04/24 02:07:04;;;;;;;4.88;3.28;;;10.90;83.20;;;;;;4986997;28;20401;-71
2023/04/24 02:09:32;;;;;;;5.07;3.03;;;10.90;83.20;;;;;;5002562;28;20498;-71
2023/04/24 02:12:00;;;;;;;3.53;2.00;;;10.80;83.00;;;;;;4987362;28;20557;-71
2023/04/24 02:14:28;;;;;;;4.32;3.30;;;10.80;83.20;;;;;;4984931;28;20061;-71
2023/04/24 02:16:55;;;;;;;3.80;2.60;;;10.80;83.10;;;;;;4986965;28;20049;-71
2023/04/24 02:19:22;;;;;;;4.75;3.20;;;10.70;83.10;;;;;;4986535;28;20385;-71
2023/04/24 02:21:51;;;;;;;4.38;2.90;;;10.70;83.10;;;;;;4985927;28;20555;-71
2023/04/24 02:24:18;;;;;;;4.75;2.95;;;10.70;83.10;;;;;;4987256;28;20051;-71
2023/04/24 02:26:45;;;;;;;4.25;3.13;;;10.60;83.20;;;;;;4987101;28;20631;-70
2023/04/24 02:29:12;;;;;;;4.17;2.70;;;10.60;83.30;;;;;;4985993;28;20065;-71
2023/04/24 02:31:40;;;;;;;4.70;2.80;;;10.60;83.30;;;;;;4998195;28;20322;-71
2023/04/24 02:34:07;;;;;;;4.45;2.85;;;10.60;83.40;;;;;;4984006;28;20047;-71
2023/04/24 02:36:34;;;;;;;4.10;2.72;;;10.60;83.50;;;;;;4985824;28;20574;-71
2023/04/24 02:39:01;;;;;;;4.30;3.03;;;10.50;83.40;;;;;;4986141;28;20047;-71
2023/04/24 02:41:31;;;;;;;3.77;2.87;;;10.50;83.70;;;;;;4983815;28;20054;-71
2023/04/24 02:43:58;;;;;;;4.03;2.60;;;10.50;83.70;;;;;;4967821;28;20267;-70
2023/04/24 02:46:25;;;;;;;4.55;2.75;;;10.50;83.70;;;;;;4981886;28;20141;-70
2023/04/24 02:48:53;;;;;;;4.55;2.58;;;10.50;83.80;;;;;;4988027;28;20990;-70
2023/04/24 02:51:20;;;;;;;4.20;2.47;;;10.50;83.70;;;;;;4982849;28;20407;-70
2023/04/24 02:53:47;;;;;;;3.80;2.20;;;10.40;83.80;;;;;;4969036;28;20055;-70
2023/04/24 02:56:14;;;;;;;5.03;2.38;;;10.40;83.70;;;;;;4986621;28;20282;-71
2023/04/24 02:58:42;;;;;;;3.50;2.22;;;10.40;83.60;;;;;;4986400;28;20078;-71
2023/04/24 03:01:09;;;;;;;3.50;2.10;;;10.40;83.70;;;;;;4985749;28;20043;-71
2023/04/24 03:03:36;;;;;;;4.25;2.13;;;10.40;83.70;;;;;;4985656;28;20569;-70
2023/04/24 03:06:05;;;;;;;3.37;2.10;;;10.40;83.70;;;;;;4988154;28;20059;-71
2023/04/24 03:08:33;;;;;;;4.90;2.65;;;10.30;83.80;;;;;;4988403;28;20270;-71
2023/04/24 03:11:00;;;;;;;4.25;2.30;;;10.40;83.80;;;;;;4989323;28;20512;-71
2023/04/24 03:13:27;;;;;;;4.25;2.80;;;10.30;83.60;;;;;;5006674;28;20850;-71
2023/04/24 03:15:54;;;;;;;5.18;2.63;;;10.30;83.80;;;;;;5006446;28;20053;-71
2023/04/24 03:18:21;;;;;;;4.87;3.30;;;10.30;83.70;;;;;;4991149;28;20105;-71
2023/04/24 03:20:50;;;;;;;4.60;2.83;;;10.30;83.60;;;;;;4987705;28;20378;-70
2023/04/24 03:23:19;;;;;;;4.70;3.20;;;10.30;83.70;;;;;;4986466;28;20062;-70
2023/04/24 03:25:48;;;;;;;5.13;3.58;;;10.20;83.90;;;;;;4986845;28;20051;-70
2023/04/24 03:28:16;;;;;;;4.63;3.13;;;10.30;83.70;;;;;;4998000;28;20073;-71
2023/04/24 03:30:46;;;;;;;4.13;2.70;;;10.20;83.70;;;;;;4989399;28;20061;-70
2023/04/24 03:33:14;;;;;;;5.03;3.50;;;10.20;83.80;;;;;;4989906;28;20737;-70
2023/04/24 03:35:49;;;;;;;4.78;3.08;;;10.20;83.80;;;;;;4989819;28;20487;-71
2023/04/24 03:38:19;;;;;;;4.63;3.33;;;10.20;83.80;;;;;;4987439;28;20050;-70
2023/04/24 03:40:59;;;;;;;5.47;3.58;;;10.20;83.90;;;;;;4989237;28;20051;-71
2023/04/24 03:43:47;;;;;;;4.83;2.80;;;10.20;83.80;;;;;;4989545;28;20047;-71
2023/04/24 03:46:14;;;;;;;4.95;3.10;;;10.20;84.00;;;;;;4989506;28;20266;-71
2023/04/24 03:48:46;;;;;;;5.15;2.38;;;10.20;84.00;;;;;;5005869;28;20054;-71
2023/04/24 03:51:15;;;;;;;3.88;2.45;;;10.20;84.00;;;;;;5005230;28;20061;-70
2023/04/24 03:53:46;;;;;;;4.25;2.53;;;10.20;84.20;;;;;;5003618;28;20055;-70
2023/04/24 03:56:17;;;;;;;4.10;2.20;;;10.10;84.20;;;;;;4989469;28;20071;-71
2023/04/24 03:58:44;;;;;;;3.13;1.60;;;10.10;84.30;;;;;;4973077;28;20274;-70
2023/04/24 04:01:13;;;;;;;3.55;1.50;;;10.10;84.40;;;;;;4988946;28;20544;-71
2023/04/24 04:03:48;;;;;;;3.40;1.20;;;10.10;84.70;;;;;;4989101;28;20186;-71
2023/04/24 04:06:19;;;;;;;2.80;1.30;;;10.10;84.80;;;;;;4989400;28;20057;-71
2023/04/24 04:08:48;;;;;;;3.03;1.33;;;10.20;85.00;;;;;;4985865;28;20114;-70
2023/04/24 04:11:15;;;;;;;2.47;0.77;;;10.10;85.00;;;;;;4998226;28;20289;-70
2023/04/24 04:13:42;;;;;;;2.53;0.75;;;10.10;85.20;;;;;;4988761;28;20738;-71
2023/04/24 04:16:10;;;;;;;2.40;0.70;;;10.20;85.20;;;;;;4989213;28;20102;-71
2023/04/24 04:18:37;;;;;;;2.40;0.73;;;10.20;85.10;;;;;;5005463;28;20054;-70
2023/04/24 04:21:07;;;;;;;2.13;0.50;;;10.10;85.10;;;;;;5004109;28;20051;-70
2023/04/24 04:23:34;;;;;;;2.03;0.38;;;10.10;84.90;;;;;;4985571;28;20264;-70
2023/04/24 04:26:13;;;;;;;2.10;0.50;;;10.10;84.80;;;;;;4980204;28;20048;-70
2023/04/24 04:29:03;;;;;;;1.75;0.40;;;10.10;84.50;;;;;;4988326;28;20043;-71
2023/04/24 04:31:31;;;;;;;2.05;0.40;;;10.10;84.20;;;;;;4988823;28;20051;-70
2023/04/24 04:34:02;;;;;;;1.80;0.40;;;10.10;84.00;;;;;;5005129;28;20580;-71
2023/04/24 04:36:31;;;;;;;2.10;0.50;;;10.10;84.20;;;;;;4988247;28;20821;-71
2023/04/24 04:39:07;;;;;;;2.75;0.60;;;10.10;84.20;;;;;;4987961;28;20418;-70
2023/04/24 04:41:56;;;;;;;2.60;0.80;;;10.00;84.30;;;;;;4987953;28;20703;-70
2023/04/24 04:44:28;;;;;;;2.45;0.70;;;10.00;84.60;;;;;;4986647;28;20051;-70
2023/04/24 04:46:56;;;;;;;2.80;0.90;;;10.00;84.60;;;;;;4988448;28;20055;-71
2023/04/24 04:49:29;;;;;;;2.97;1.05;;;10.00;85.10;;;;;;4987968;28;20255;-71
2023/04/24 04:51:56;;;;;;;3.17;1.15;;;10.00;85.00;;;;;;4982616;28;20170;-71
2023/04/24 04:54:25;;;;;;;3.30;1.20;;;10.00;85.20;;;;;;4979393;28;20043;-70
2023/04/24 04:56:53;;;;;;;4.25;1.25;;;10.00;85.20;;;;;;4968888;28;20142;-70
2023/04/24 04:59:21;;;;;;;3.37;1.70;;;10.00;85.20;;;;;;5000791;28;20047;-71
2023/04/24 05:01:52;;;;;;;3.13;1.25;;;10.00;85.40;;;;;;4999453;28;20449;-70
2023/04/24 05:04:20;;;;;;;3.92;1.50;;;10.00;85.20;;;;;;4981099;28;20538;-71
2023/04/24 05:06:47;;;;;;;3.78;1.33;;;10.00;85.20;;;;;;4988580;28;20579;-71
2023/04/24 05:09:14;;;;;;;3.10;1.13;;;10.00;85.40;;;;;;4987538;28;20046;-71
2023/04/24 05:11:50;;;;;;;3.13;1.43;;;10.00;85.50;;;;;;5004790;28;20047;-70
2023/04/24 05:14:18;;;;;;;3.20;1.30;;;10.00;85.50;;;;;;5004968;28;20293;-70
2023/04/24 05:16:47;;;;;;;3.45;1.20;;;9.90;85.40;;;;;;4986094;28;20054;-71
2023/04/24 05:19:16;;;;;;;3.05;1.20;;;9.90;85.30;;;;;;4987723;28;20047;-70
2023/04/24 05:21:45;;;;;;;3.33;1.30;;;9.80;85.50;;;;;;4988577;28;20051;-70
2023/04/24 05:24:12;;;;;;;3.23;1.30;;;9.90;85.60;;;;;;4984620;28;20507;-70
2023/04/24 05:26:55;;;;;;;2.88;1.23;;;9.80;85.70;;;;;;4977062;28;20937;-70
2023/04/24 05:29:27;;;;;;;3.58;1.20;;;9.80;85.70;;;;;;4987296;28;20050;-70
2023/04/24 05:31:55;;;;;;;3.00;1.05;;;9.80;86.10;;;;;;4987905;28;20051;-71
2023/04/24 05:34:23;;;;;;;3.10;1.17;;;9.80;86.00;;;;;;4985798;28;20047;-71
2023/04/24 05:36:54;;;;;;;3.53;0.90;;;9.80;86.10;;;;;;4988320;28;20055;-71
2023/04/24 05:39:21;;;;;;;3.17;1.20;;;9.80;86.10;;;;;;4987285;28;20756;-70
2023/04/24 05:41:48;;;;;;;3.00;1.00;;;9.80;86.20;;;;;;4984938;28;20098;-71
2023/04/24 05:44:15;;;;;;;3.30;1.10;;;9.80;86.30;;;;;;4967940;28;20134;-70
2023/04/24 05:46:42;;;;;;;3.08;1.20;;;9.80;86.30;;;;;;4968592;28;20647;-71
2023/04/24 05:49:12;;;;;;;2.83;1.03;;;9.80;86.40;;;;;;4983609;28;20058;-70
2023/04/24 05:51:39;;;;;;;3.28;0.90;;;9.80;86.30;;;;;;4980504;28;20252;-71
2023/04/24 05:54:07;;;;;;;3.33;0.93;;;9.80;86.20;;;;;;4968462;28;20047;-71
2023/04/24 05:56:34;;;;;;;2.50;0.80;;;9.90;86.20;;;;;;5001294;28;20069;-71
2023/04/24 05:59:03;;;;;;;2.63;0.73;;;9.90;86.20;;;;;;5002837;28;20046;-71
2023/04/24 06:01:31;;;;;;;2.60;0.83;;;9.90;86.60;;;;;;5003704;28;20541;-70
2023/04/24 06:04:06;;;;;;;2.00;0.50;;;9.90;86.50;;;;;;4987449;28;20270;-71
2023/04/24 06:06:36;;;;;;;2.80;0.70;;;10.00;86.90;;;;;;4984707;28;20046;-71
2023/04/24 06:09:03;;;;;;;2.45;0.60;;;10.00;87.00;;;;;;4970211;28;20051;-71
2023/04/24 06:11:31;;;;;;;2.45;0.50;;;10.00;87.20;;;;;;4987249;28;20057;-71
2023/04/24 06:13:59;;;;;;;1.90;0.50;;;10.00;87.10;;;;;;4987226;28;20338;-71
2023/04/24 06:16:55;;;;;;;2.65;0.57;;;10.00;86.80;;;;;;4981483;28;20290;-71
2023/04/24 06:19:35;;;;;;;2.00;0.40;;;10.00;87.00;;;;;;4983291;28;20082;-71
2023/04/24 06:22:04;;;;;;;1.92;0.50;;;10.00;86.60;;;;;;5001661;28;20051;-71
2023/04/24 06:24:32;;;;;;;1.85;0.50;;;10.00;86.70;;;;;;4984618;28;20055;-71
2023/04/24 06:26:59;;;;;;;1.93;0.50;;;10.10;87.30;;;;;;4987348;28;20682;-72
2023/04/24 06:29:26;;;;;;;1.33;0.25;;;10.10;87.70;;;;;;4986071;28;20278;-71
2023/04/24 06:31:53;;;;;;;1.77;0.30;;;10.20;88.30;;;;;;4987109;28;20047;-71
2023/04/24 06:34:20;;;;;;;2.38;0.40;;;10.20;88.40;;;;;;5003013;28;20153;-71
2023/04/24 06:36:48;;;;;;;2.92;0.70;;;10.20;88.00;;;;;;4986591;28;20053;-71
2023/04/24 06:39:16;;;;;;;3.53;0.60;;;10.20;87.50;;;;;;4986032;28;20695;-70
2023/04/24 06:41:43;;;;;;;2.80;0.70;;;10.30;87.20;;;;;;4984961;28;20316;-71
2023/04/24 06:44:19;;;;;;;2.70;0.70;;;10.30;87.20;;;;;;4986247;28;20047;-71
2023/04/24 06:46:46;;;;;;;3.88;1.02;;;10.30;87.00;;;;;;4986824;28;20047;-71
2023/04/24 06:49:15;;;;;;;3.65;0.95;;;10.30;86.70;;;;;;4986186;28;20082;-71
2023/04/24 06:51:42;;;;;;;3.90;1.30;;;10.30;86.80;;;;;;4986940;28;20537;-71
2023/04/24 06:54:09;;;;;;;4.30;1.17;;;10.30;86.70;;;;;;5002891;28;20310;-71
2023/04/24 06:56:37;;;;;;;3.50;1.13;;;10.40;86.90;;;;;;4984207;28;20101;-71
2023/04/24 06:59:04;;;;;;;2.63;0.80;;;10.40;87.00;;;;;;4985134;28;20053;-71
2023/04/24 07:01:31;;;;;;;4.80;1.70;;;10.40;87.00;;;;;;4987486;28;20129;-71
2023/04/24 07:03:59;;;;;;;3.20;1.10;;;10.40;87.20;;;;;;4987920;28;20092;-72
2023/04/24 07:06:27;;;;;;;5.22;1.90;;;10.30;87.70;;;;;;4979625;28;20267;-71
2023/04/24 07:08:55;;;;;;;5.55;2.25;;;10.30;87.40;;;;;;4982671;28;20055;-72
2023/04/24 07:11:21;;;;;;;3.83;1.25;;;10.30;87.20;;;;;;4986705;28;20079;-72
2023/04/24 07:13:50;;;;;;;4.82;2.00;;;10.30;87.50;;;;;;4984430;28;20051;-72
2023/04/24 07:16:17;;;;;;;5.40;2.07;;;10.30;87.90;;;;;;4988010;28;20054;-71
2023/04/24 07:18:44;;;;;;;4.85;2.08;;;10.30;87.60;;;;;;4986340;28;20259;-71
2023/04/24 07:21:11;;;;;;;4.35;1.58;;;10.20;87.70;;;;;;4985287;28;20057;-72
2023/04/24 07:23:38;;;;;;;4.55;1.50;;;10.20;87.80;;;;;;4982377;28;20134;-71
2023/04/24 07:26:05;;;;;;;5.18;1.40;;;10.20;87.70;;;;;;4986480;28;20608;-71
2023/04/24 07:28:32;;;;;;;4.13;1.50;;;10.20;87.70;;;;;;4985966;28;20120;-71
2023/04/24 07:31:00;;;;;;;4.78;1.50;;;10.20;87.70;;;;;;4983744;28;20837;-72
2023/04/24 07:33:27;;;;;;;3.92;1.30;;;10.20;87.50;;;;;;4986142;28;20053;-71
2023/04/24 07:35:54;;;;;;;2.88;1.08;;;10.10;87.70;;;;;;4986009;28;20059;-72
2023/04/24 07:38:22;;;;;;;4.25;0.80;;;10.10;87.90;;;;;;5002077;28;20051;-71
2023/04/24 07:40:49;;;;;;;2.03;0.40;;;10.10;87.80;;;;;;4985191;28;20051;-71
2023/04/24 07:43:15;;;;;;;2.88;1.08;;;10.10;87.70;;;;;;4987579;28;20255;-72
2023/04/24 07:45:43;;;;;;;2.53;0.63;;;10.10;87.70;;;;;;4987759;28;20623;-71
2023/04/24 07:48:11;;;;;;;2.38;0.63;;;10.10;87.80;;;;;;4984287;28;20058;-71
2023/04/24 07:50:38;;;;;;;3.65;1.20;;;10.20;88.10;;;;;;4986867;28;20051;-72
2023/04/24 07:53:05;;;;;;;3.30;0.80;;;10.10;87.80;;;;;;5001741;28;20043;-71
2023/04/24 07:55:32;;;;;;;4.35;1.05;;;10.20;87.50;;;;;;4987721;28;20283;-71
2023/04/24 07:57:59;;;;;;;4.43;1.20;;;10.20;87.70;;;;;;4986585;28;20061;-71
2023/04/24 08:00:26;;;;;;;4.95;1.13;;;10.20;87.50;;;;;;5004627;28;20053;-72
2023/04/24 08:02:53;;;;;;;4.00;1.10;;;10.10;87.20;;;;;;4989399;28;20114;-72
2023/04/24 08:05:21;;;;;;;3.53;1.23;;;10.10;86.90;;;;;;4988873;28;20062;-71
2023/04/24 08:07:50;;;;;;;2.90;1.02;;;10.10;87.00;;;;;;5005630;28;20370;-71
2023/04/24 08:10:17;;;;;;;3.83;1.00;;;10.10;86.90;;;;;;4988816;28;20098;-71
2023/04/24 08:12:44;;;;;;;4.88;0.93;;;10.10;86.80;;;;;;4985854;28;20506;-71
2023/04/24 08:15:11;;;;;;;2.65;0.65;;;10.10;86.70;;;;;;4970044;28;20051;-72
2023/04/24 08:17:38;;;;;;;4.87;1.17;;;10.10;86.70;;;;;;4985602;28;20047;-71
2023/04/24 08:20:10;;;;;;;4.45;0.95;;;10.10;86.70;;;;;;4969649;28;20903;-72
2023/04/24 08:22:38;;;;;;;4.93;1.58;;;10.00;86.70;;;;;;4988216;28;20553;-71
2023/04/24 08:25:06;;;;;;;8.48;2.38;;;10.00;86.70;;;;;;4989101;28;20057;-71
2023/04/24 08:27:33;;;;;;;5.75;1.50;;;10.00;86.30;;;;;;4990274;28;20176;-72
2023/04/24 08:30:00;;;;;;;6.10;2.50;;;10.00;86.30;;;;;;4984810;28;20134;-71
2023/04/24 08:32:28;;;;;;;8.57;3.50;;;10.00;86.10;;;;;;4974271;28;20294;-71
2023/04/24 08:34:56;;;;;;;9.95;3.65;;;10.00;86.00;;;;;;4988686;28;20481;-72
2023/04/24 08:37:23;;;;;;;9.27;3.50;;;10.00;86.10;;;;;;4986042;28;20055;-72
2023/04/24 08:39:52;;;;;;;8.32;3.58;;;10.00;85.90;;;;;;4988617;28;20125;-72
2023/04/24 08:42:20;;;;;;;11.23;4.80;;;9.90;85.60;;;;;;4989003;28;20158;-71
2023/04/24 08:44:49;;;;;;;15.38;5.50;;;9.90;85.40;;;;;;5004675;28;20314;-71
2023/04/24 08:47:17;;;;;;;13.63;5.07;;;9.90;85.10;;;;;;4988523;28;20051;-71
2023/04/24 08:49:45;;;;;;;5.97;2.45;;;9.90;85.00;;;;;;4987878;28;20055;-71
2023/04/24 08:52:14;;;;;;;9.65;4.15;;;9.90;85.20;;;;;;4988313;28;20255;-71
2023/04/24 08:54:43;;;;;;;9.70;4.10;;;10.00;85.20;;;;;;4974769;28;20612;-71
2023/04/24 08:57:12;;;;;;;10.65;3.90;;;9.90;85.30;;;;;;4985573;28;20456;-71
2023/04/24 08:59:39;;;;;;;9.15;4.13;;;9.80;85.40;;;;;;4981758;28;20166;-71
2023/04/24 09:02:10;;;;;;;11.27;4.47;;;9.80;85.40;;;;;;4987827;28;20055;-71
2023/04/24 09:04:38;;;;;;;10.82;3.90;;;9.80;85.30;;;;;;4984870;28;20063;-71
2023/04/24 09:07:07;;;;;;;11.93;6.23;;;9.70;85.30;;;;;;4968239;28;20178;-71
2023/04/24 09:09:36;;;;;;;15.43;6.93;;;9.70;85.20;;;;;;4980158;28;20255;-71
2023/04/24 09:12:04;;;;;;;14.65;6.38;;;9.70;84.20;;;;;;4971901;28;20126;-71
2023/04/24 09:14:33;;;;;;;11.27;5.10;;;9.60;84.20;;;;;;4989416;28;20170;-71
2023/04/24 09:17:00;;;;;;;14.93;6.95;;;9.60;84.10;;;;;;4988101;28;20679;-71
2023/04/24 09:19:27;;;;;;;15.00;7.63;;;9.50;84.00;;;;;;4988934;28;20153;-71
2023/04/24 09:21:54;;;;;;;16.55;6.90;;;9.50;83.70;;;;;;4989469;28;20255;-71
2023/04/24 09:24:23;;;;;;;12.68;5.50;;;9.40;84.00;;;;;;4989123;28;20631;-71
2023/04/24 09:26:58;;;;;;;10.07;4.75;;;9.40;84.30;;;;;;4986934;28;20062;-71
2023/04/24 09:29:25;;;;;;;12.95;6.55;;;9.40;84.40;;;;;;4967950;28;20097;-71
2023/04/24 09:31:53;;;;;;;12.47;5.90;;;9.40;84.60;;;;;;4968959;28;20047;-71
2023/04/24 09:34:23;;;;;;;10.25;4.43;;;9.30;84.40;;;;;;5004686;28;20908;-71
2023/04/24 09:36:51;;;;;;;15.05;4.35;;;9.20;84.70;;;;;;4997125;28;20047;-71
2023/04/24 09:39:19;;;;;;;10.82;4.50;;;9.20;85.00;;;;;;4987183;28;20679;-71
2023/04/24 09:41:47;;;;;;;8.90;4.50;;;9.20;84.90;;;;;;4988993;28;20054;-71
2023/04/24 09:44:16;;;;;;;10.83;5.20;;;9.20;85.20;;;;;;4986114;28;20055;-71
2023/04/24 09:46:45;;;;;;;8.80;4.20;;;9.20;85.00;;;;;;4989011;28;20365;-71
2023/04/24 09:49:16;;;;;;;9.38;4.80;;;9.20;85.10;;;;;;5003161;28;20161;-71
2023/04/24 09:51:44;;;;;;;9.25;4.38;;;9.20;85.10;;;;;;4987651;28;20395;-71
2023/04/24 09:54:16;;;;;;;9.60;4.30;;;9.20;85.30;;;;;;4987776;28;20296;-71
2023/04/24 09:56:45;;;;;;;12.70;5.33;;;9.20;85.30;;;;;;4969672;28;20130;-71
2023/04/24 09:59:12;;;;;;;9.00;4.22;;;9.20;85.40;;;;;;4987314;28;20262;-71
2023/04/24 10:01:42;;;;;;;11.15;4.70;;;9.20;85.60;;;;;;4986357;28;20054;-71
2023/04/24 10:04:18;;;;;;;7.28;2.85;;;9.20;85.50;;;;;;4987367;28;20047;-71
2023/04/24 10:06:46;;;;;;;6.43;2.33;;;9.20;85.70;;;;;;4989021;28;20439;-71
2023/04/24 10:09:13;;;;;;;10.30;3.87;;;9.20;86.20;;;;;;4986523;28;20061;-71
2023/04/24 10:11:43;;;;;;;9.57;3.08;;;9.20;86.10;;;;;;4969398;28;20394;-71
2023/04/24 10:14:11;;;;;;;8.48;3.35;;;9.30;85.90;;;;;;4986426;28;20055;-71
2023/04/24 10:16:40;;;;;;;6.03;2.63;;;9.30;85.50;;;;;;4985820;28;20047;-72
2023/04/24 10:19:07;;;;;;;11.55;4.00;;;9.30;85.30;;;;;;4985212;28;20047;-71
2023/04/24 10:21:37;;;;;;;7.57;3.03;;;9.30;85.00;;;;;;4988445;28;20250;-71
2023/04/24 10:24:07;;;;;;;7.93;4.05;;;9.40;84.90;;;;;;4984905;28;20287;-73
2023/04/24 10:26:34;;;;;;;6.95;2.95;;;9.40;84.70;;;;;;4978372;28;20066;-71
2023/04/24 10:29:02;;;;;;;7.13;3.08;;;9.40;83.70;;;;;;4999155;28;20484;-70
2023/04/24 10:31:32;;;;;;;7.68;2.95;;;9.40;83.80;;;;;;4981732;28;20059;-70
2023/04/24 10:34:00;;;;;;;7.80;3.83;;;9.40;83.60;;;;;;4982187;28;20055;-71
2023/04/24 10:36:32;;;;;;;7.10;2.60;;;9.40;82.50;;;;;;4984921;28;20717;-71
2023/04/24 10:39:02;;;;;;;7.95;2.00;;;9.40;82.00;;;;;;4983760;28;20059;-71
2023/04/24 10:41:31;;;;;;;8.45;2.75;;;9.30;81.60;;;;;;4984802;28;20109;-71
2023/04/24 10:44:09;;;;;;;6.75;1.88;;;9.30;80.00;;;;;;4980430;28;20046;-71
2023/04/24 10:46:36;;;;;;;9.23;2.40;;;9.20;80.40;;;;;;4980876;28;20149;-71
2023/04/24 10:49:06;;;;;;;5.15;1.52;;;9.20;80.30;;;;;;4980369;28;20258;-71
2023/04/24 10:51:48;;;;;;;6.25;1.40;;;9.20;80.70;;;;;;4980883;28;20077;-71
2023/04/24 10:54:27;;;;;;;8.40;2.33;;;9.10;81.20;;;;;;4979949;28;20051;-73
2023/04/24 10:57:28;;;;;;;7.32;2.00;;;9.10;81.50;;;;;;4982202;28;20249;-71
2023/04/24 11:00:13;;;;;;;7.30;2.13;;;9.10;81.20;;;;;;4982005;28;20058;-71
2023/04/24 11:02:47;;;;;;;6.00;1.35;;;9.10;80.80;;;;;;4982946;28;20278;-71
2023/04/24 11:05:16;;;;;;;6.93;1.85;;;9.10;80.80;;;;;;4982407;28;20059;-71
2023/04/24 11:08:11;;;;;;;5.80;1.80;;;9.10;80.50;;;;;;4984004;28;20058;-71
2023/04/24 11:10:41;;;;;;;6.00;2.25;;;9.20;80.70;;;;;;4983524;28;20141;-71
2023/04/24 11:13:09;;;;;;;6.73;1.80;;;9.20;80.10;;;;;;4984331;28;20054;-71
2023/04/24 11:15:36;;;;;;;7.55;1.75;;;9.20;80.20;;;;;;4984229;28;20274;-71
2023/04/24 11:18:03;;;;;;;7.05;2.63;;;9.20;80.60;;;;;;4984766;28;20806;-70
2023/04/24 11:20:30;;;;;;;5.70;1.33;;;9.20;80.40;;;;;;4986268;28;20078;-72
2023/04/24 11:23:04;;;;;;;5.68;1.48;;;9.20;80.20;;;;;;4984856;28;20133;-72
2023/04/24 11:25:32;;;;;;;7.20;1.80;;;9.20;79.80;;;;;;4979448;28;20490;-71
2023/04/24 11:28:06;;;;;;;8.02;2.20;;;9.20;80.00;;;;;;4983542;28;20787;-71
2023/04/24 11:30:35;;;;;;;4.15;1.08;;;9.20;80.10;;;;;;4986679;28;20783;-71
2023/04/24 11:33:06;;;;;;;5.43;1.45;;;9.20;80.50;;;;;;4986305;28;20043;-71
2023/04/24 11:35:37;;;;;;;6.85;1.52;;;9.20;80.50;;;;;;4987701;28;20203;-71
2023/04/24 11:38:05;;;;;;;5.93;1.33;;;9.20;80.20;;;;;;4982063;28;20081;-71
2023/04/24 11:40:32;;;;;;;5.90;1.58;;;9.20;80.70;;;;;;4990191;28;20334;-71
2023/04/24 11:43:01;;;;;;;5.38;1.17;;;9.20;80.70;;;;;;4979803;28;20126;-71
2023/04/24 11:45:30;;;;;;;7.85;1.13;;;9.20;80.50;;;;;;4987588;28;20175;-71
2023/04/24 11:47:58;;;;;;;6.35;1.15;;;9.20;80.10;;;;;;4989251;28;20058;-71
2023/04/24 11:50:28;;;;;;;4.90;1.30;;;9.20;79.60;;;;;;4980486;28;20053;-70
2023/04/24 11:52:55;;;;;;;6.32;1.17;;;9.20;79.20;;;;;;4989305;28;20282;-71
2023/04/24 11:55:27;;;;;;;5.00;1.25;;;9.30;78.50;;;;;;4990066;28;20506;-71
2023/04/24 11:57:57;;;;;;;6.15;1.17;;;9.40;77.60;;;;;;4985630;28;20584;-71
2023/04/24 12:00:25;;;;;;;5.53;1.42;;;9.40;76.70;;;;;;4985955;28;20054;-71
2023/04/24 12:03:06;;;;;;;4.37;0.97;;;9.40;75.00;;;;;;4989719;28;20051;-70
2023/04/24 12:05:34;;;;;;;5.82;1.45;;;9.30;75.40;;;;;;4984952;28;20294;-71
2023/04/24 12:08:01;;;;;;;6.57;1.70;;;9.30;75.30;;;;;;4984885;28;20063;-70
2023/04/24 12:10:29;;;;;;;7.20;1.33;;;9.20;74.80;;;;;;4987987;28;20121;-70
2023/04/24 12:12:58;;;;;;;4.05;0.98;;;9.20;75.30;;;;;;4982223;28;20139;-71
2023/04/24 12:15:26;;;;;;;8.17;1.37;;;9.20;75.30;;;;;;4982171;28;20047;-71
2023/04/24 12:17:56;;;;;;;6.05;0.80;;;9.20;75.90;;;;;;4997849;28;20254;-71
2023/04/24 12:20:29;;;;;;;2.70;0.80;;;9.20;75.90;;;;;;4996989;28;20221;-71
2023/04/24 12:22:57;;;;;;;6.63;1.25;;;9.20;76.50;;;;;;4977277;28;20055;-71
2023/04/24 12:25:25;;;;;;;6.03;1.08;;;9.20;77.20;;;;;;4981193;28;20511;-71
2023/04/24 12:28:10;;;;;;;4.53;1.00;;;9.30;77.70;;;;;;4981318;28;20061;-71
2023/04/24 12:30:42;;;;;;;4.65;0.80;;;9.30;77.50;;;;;;4984217;28;20282;-71
2023/04/24 12:33:11;;;;;;;4.90;0.75;;;9.40;77.10;;;;;;4982225;28;20479;-71
2023/04/24 12:35:40;;;;;;;4.88;0.40;;;9.40;76.50;;;;;;4984983;28;20057;-71
2023/04/24 12:38:08;;;;;;;2.58;0.70;;;9.40;75.70;;;;;;4967974;28;20134;-71
2023/04/24 12:40:35;;;;;;;2.93;0.40;;;9.40;75.00;;;;;;4977016;28;20059;-71
2023/04/24 12:43:02;;;;;;;3.58;0.32;;;9.40;73.90;;;;;;4986839;28;20254;-71
2023/04/24 12:45:29;;;;;;;3.63;0.45;;;9.40;74.70;;;;;;4981720;28;20632;-71
2023/04/24 12:47:56;;;;;;;3.78;0.40;;;9.40;75.00;;;;;;4985618;28;20421;-71
2023/04/24 12:50:24;;;;;;;3.83;0.30;;;9.40;75.70;;;;;;4981960;28;20039;-71
2023/04/24 12:52:51;;;;;;;2.10;0.33;;;9.50;75.10;;;;;;4985804;28;20051;-72
2023/04/24 12:55:18;;;;;;;2.33;0.68;;;9.50;75.30;;;;;;4981196;28;20268;-72
2023/04/24 12:57:45;;;;;;;6.97;0.73;;;9.50;75.80;;;;;;4984799;28;20058;-71
2023/04/24 13:00:13;;;;;;;2.85;0.65;;;9.50;76.20;;;;;;4987724;28;20086;-71